createdAt,value
2017-11-24T00:02:34.394Z,3.10
2017-11-24T00:04:35.436Z,3.20
2017-11-24T00:06:36.559Z,2.63
2017-11-24T00:08:42.270Z,2.93
2017-11-24T00:10:43.417Z,3.40
2017-11-24T00:12:44.412Z,2.93
2017-11-24T00:14:45.415Z,3.63
2017-11-24T00:16:46.418Z,3.50
2017-11-24T00:18:47.983Z,3.47
2017-11-24T00:20:50.610Z,2.50
2017-11-24T00:22:51.693Z,2.93
2017-11-24T00:24:52.724Z,2.97
2017-11-24T00:26:53.961Z,2.93
2017-11-24T00:28:55.501Z,2.95
2017-11-24T00:30:56.604Z,2.97
2017-11-24T00:32:57.655Z,2.70
2017-11-24T00:34:58.652Z,3.60
2017-11-24T00:36:59.613Z,3.03
2017-11-24T00:39:01.045Z,3.13
2017-11-24T00:41:02.629Z,2.10
2017-11-24T00:43:03.687Z,3.10
2017-11-24T00:45:04.895Z,2.80
2017-11-24T00:47:05.962Z,3.10
2017-11-24T00:49:07.729Z,2.57
2017-11-24T00:51:08.803Z,3.30
2017-11-24T00:53:09.849Z,2.53
2017-11-24T00:55:11.443Z,2.30
2017-11-24T00:57:12.522Z,3.00
2017-11-24T00:59:13.560Z,2.80
2017-11-24T01:01:14.536Z,3.57
2017-11-24T01:03:17.278Z,3.17
2017-11-24T01:05:18.693Z,3.30
2017-11-24T01:07:19.764Z,2.53
2017-11-24T01:09:20.837Z,2.77
2017-11-24T01:11:22.115Z,3.13
2017-11-24T01:13:23.137Z,2.50
2017-11-24T01:15:24.160Z,3.00
2017-11-24T01:17:26.700Z,2.50
2017-11-24T01:19:28.562Z,2.20
2017-11-24T01:21:29.688Z,2.57
2017-11-24T01:23:30.788Z,3.10
2017-11-24T01:25:31.794Z,2.30
2017-11-24T01:27:32.817Z,2.80
2017-11-24T01:32:12.011Z,2.30
2017-11-24T01:34:13.757Z,2.97
2017-11-24T01:36:14.734Z,2.37
2017-11-24T01:38:16.482Z,2.57
2017-11-24T01:40:17.558Z,2.90
2017-11-24T01:42:18.571Z,3.60
2017-11-24T01:44:19.560Z,2.93
2017-11-24T01:46:20.582Z,3.00
2017-11-24T01:48:21.554Z,3.17
2017-11-24T01:50:22.642Z,3.23
2017-11-24T01:52:23.617Z,2.80
2017-11-24T01:54:24.599Z,3.13
2017-11-24T01:56:25.592Z,3.40
2017-11-24T01:58:26.689Z,3.53
2017-11-24T02:00:27.814Z,2.73
2017-11-24T02:02:29.603Z,3.43
2017-11-24T02:04:30.649Z,2.60
2017-11-24T02:06:31.733Z,3.43
2017-11-24T02:08:32.729Z,3.60
2017-11-24T02:10:34.429Z,3.90
2017-11-24T02:12:35.497Z,3.90
2017-11-24T02:14:36.504Z,3.63
2017-11-24T02:16:37.511Z,3.80
2017-11-24T02:18:38.767Z,3.60
2017-11-24T02:20:39.832Z,3.40
2017-11-24T02:22:41.596Z,3.60
2017-11-24T02:24:42.584Z,2.30
2017-11-24T02:26:43.617Z,3.87
2017-11-24T02:28:44.598Z,3.13
2017-11-24T02:30:45.595Z,4.23
2017-11-24T02:32:47.321Z,3.00
2017-11-24T02:34:48.364Z,4.10
2017-11-24T02:36:49.376Z,2.87
2017-11-24T02:38:50.359Z,3.87
2017-11-24T02:40:51.343Z,4.10
2017-11-24T02:42:53.150Z,3.50
2017-11-24T02:44:54.230Z,3.43
2017-11-24T02:46:55.375Z,3.43
2017-11-24T02:48:56.346Z,3.80
2017-11-24T02:50:58.054Z,3.53
2017-11-24T02:52:59.097Z,3.63
2017-11-24T02:55:00.064Z,3.93
2017-11-24T02:57:01.057Z,4.13
2017-11-24T02:59:02.768Z,3.43
2017-11-24T03:01:03.772Z,3.50
2017-11-24T03:03:05.489Z,3.57
2017-11-24T03:05:06.457Z,3.60
2017-11-24T03:07:07.472Z,3.20
2017-11-24T03:09:08.492Z,3.30
2017-11-24T03:11:09.529Z,3.20
2017-11-24T03:13:11.244Z,3.73
2017-11-24T03:15:12.281Z,3.60
2017-11-24T03:17:13.296Z,4.10
2017-11-24T03:19:14.316Z,3.73
2017-11-24T03:21:16.110Z,3.43
2017-11-24T03:23:17.080Z,3.80
2017-11-24T03:25:18.180Z,3.60
2017-11-24T03:27:19.926Z,3.37
2017-11-24T03:29:20.981Z,3.10
2017-11-24T03:31:21.970Z,4.47
2017-11-24T03:33:23.029Z,3.80
2017-11-24T03:35:24.039Z,3.43
2017-11-24T03:37:25.095Z,3.30
2017-11-24T03:39:26.079Z,3.27
2017-11-24T03:41:27.141Z,3.33
2017-11-24T03:43:28.121Z,3.20
2017-11-24T03:45:29.854Z,3.50
2017-11-24T03:47:30.883Z,3.50
2017-11-24T03:49:31.853Z,3.67
2017-11-24T03:51:33.037Z,3.83
2017-11-24T03:53:34.042Z,4.17
2017-11-24T03:55:35.014Z,3.17
2017-11-24T03:57:36.025Z,3.40
2017-11-24T03:59:36.992Z,3.00
2017-11-24T04:01:38.096Z,2.77
2017-11-24T04:03:39.084Z,3.27
2017-11-24T04:05:40.174Z,3.17
2017-11-24T04:07:41.154Z,3.00
2017-11-24T04:09:42.172Z,3.20
2017-11-24T04:11:43.160Z,3.30
2017-11-24T04:13:44.282Z,3.70
2017-11-24T04:15:45.330Z,3.10
2017-11-24T04:17:46.350Z,3.20
2017-11-24T04:19:47.451Z,3.53
2017-11-24T04:21:48.784Z,3.80
2017-11-24T04:23:49.771Z,3.90
2017-11-24T04:25:50.812Z,3.17
2017-11-24T04:27:51.893Z,3.90
2017-11-24T04:29:52.935Z,3.37
2017-11-24T04:31:53.896Z,3.43
2017-11-24T04:33:55.617Z,4.00
2017-11-24T04:35:56.640Z,3.83
2017-11-24T04:37:57.609Z,4.10
2017-11-24T04:39:58.621Z,3.10
2017-11-24T04:41:59.640Z,3.60
2017-11-24T04:44:01.472Z,4.10
2017-11-24T04:46:02.500Z,3.43
2017-11-24T04:48:03.576Z,3.27
2017-11-24T04:50:05.385Z,3.67
2017-11-24T04:52:06.535Z,3.27
2017-11-24T04:54:07.501Z,3.17
2017-11-24T04:56:08.603Z,3.80
2017-11-24T04:58:09.600Z,3.30
2017-11-24T05:00:10.685Z,3.60
2017-11-24T05:02:11.814Z,3.20
2017-11-24T05:04:12.980Z,3.30
2017-11-24T05:06:14.432Z,3.10
2017-11-24T05:08:15.462Z,3.63
2017-11-24T05:10:16.583Z,4.53
2017-11-24T05:12:17.581Z,4.50
2017-11-24T05:14:18.719Z,3.93
2017-11-24T05:16:19.764Z,4.70
2017-11-24T05:18:20.847Z,4.83
2017-11-24T05:20:22.781Z,4.57
2017-11-24T05:22:23.982Z,4.97
2017-11-24T05:24:24.983Z,4.77
2017-11-24T05:26:26.096Z,4.23
2017-11-24T05:28:27.064Z,4.40
2017-11-24T05:30:28.065Z,3.73
2017-11-24T05:32:29.485Z,3.80
2017-11-24T05:34:32.323Z,4.17
2017-11-24T05:36:33.292Z,3.50
2017-11-24T05:38:34.417Z,4.60
2017-11-24T05:40:35.591Z,4.17
2017-11-24T05:42:36.557Z,4.10
2017-11-24T05:44:37.551Z,4.20
2017-11-24T05:46:38.565Z,4.13
2017-11-24T05:48:39.687Z,4.03
2017-11-24T05:50:40.651Z,4.07
2017-11-24T05:52:41.652Z,4.10
2017-11-24T05:54:42.702Z,4.00
2017-11-24T05:56:43.904Z,4.03
2017-11-24T05:58:44.947Z,4.03
2017-11-24T06:00:45.964Z,4.67
2017-11-24T06:02:46.969Z,3.20
2017-11-24T06:04:48.704Z,4.17
2017-11-24T06:06:49.738Z,4.80
2017-11-24T06:08:50.805Z,6.87
2017-11-24T06:10:51.875Z,5.17
2017-11-24T06:12:53.801Z,4.70
2017-11-24T06:14:54.788Z,5.50
2017-11-24T06:16:56.585Z,4.30
2017-11-24T06:18:57.605Z,3.80
2017-11-24T06:20:59.312Z,4.43
2017-11-24T06:23:00.499Z,5.30
2017-11-24T06:25:01.926Z,4.60
2017-11-24T06:27:03.048Z,4.17
2017-11-24T06:29:04.130Z,4.50
2017-11-24T06:31:05.267Z,3.90
2017-11-24T06:33:06.290Z,4.20
2017-11-24T06:35:07.609Z,4.53
2017-11-24T06:37:08.641Z,4.50
2017-11-24T06:39:09.849Z,4.70
2017-11-24T06:41:10.837Z,3.97
2017-11-24T06:43:11.973Z,4.57
2017-11-24T06:45:12.993Z,3.87
2017-11-24T06:47:14.126Z,4.00
2017-11-24T06:49:15.177Z,4.83
2017-11-24T06:51:16.146Z,4.60
2017-11-24T06:53:17.369Z,11.97
2017-11-24T06:55:18.416Z,5.93
2017-11-24T06:57:19.448Z,5.40
2017-11-24T06:59:20.573Z,5.90
2017-11-24T07:01:21.601Z,5.40
2017-11-24T07:03:22.643Z,4.77
2017-11-24T07:05:23.622Z,6.03
2017-11-24T07:07:24.569Z,6.57
2017-11-24T07:09:25.569Z,5.77
2017-11-24T07:11:26.615Z,5.20
2017-11-24T07:13:27.573Z,5.07
2017-11-24T07:15:28.557Z,7.43
2017-11-24T07:17:29.529Z,8.30
2017-11-24T07:19:31.311Z,10.07
2017-11-24T07:21:32.360Z,8.63
2017-11-24T07:23:33.321Z,8.73
2017-11-24T07:25:34.290Z,7.43
2017-11-24T07:27:35.242Z,7.47
2017-11-24T07:29:36.210Z,5.90
2017-11-24T07:31:37.252Z,6.07
2017-11-24T07:33:38.220Z,5.90
2017-11-24T07:35:39.917Z,5.50
2017-11-24T07:37:40.957Z,6.30
2017-11-24T07:39:41.933Z,6.37
2017-11-24T07:41:42.914Z,6.37
2017-11-24T07:43:43.873Z,6.70
2017-11-24T07:45:44.913Z,6.33
2017-11-24T07:47:45.932Z,7.47
2017-11-24T07:49:46.956Z,8.47
2017-11-24T07:51:47.933Z,7.07
2017-11-24T07:53:48.973Z,9.40
2017-11-24T07:56:03.325Z,6.90
2017-11-24T07:58:04.442Z,6.23
2017-11-24T08:00:05.393Z,7.33
2017-11-24T08:02:06.464Z,6.00
2017-11-24T08:04:07.457Z,4.27
2017-11-24T08:06:09.172Z,7.13
2017-11-24T08:08:10.126Z,3.97
2017-11-24T08:10:11.092Z,3.90
2017-11-24T08:12:12.151Z,4.87
2017-11-24T08:14:13.316Z,4.87
2017-11-24T08:16:14.324Z,4.30
2017-11-24T08:18:15.301Z,4.27
2017-11-24T08:20:17.024Z,3.70
2017-11-24T08:22:38.417Z,3.70
2017-11-24T08:24:39.463Z,4.33
2017-11-24T08:26:40.444Z,4.50
2017-11-24T08:28:41.512Z,5.00
2017-11-24T08:30:42.504Z,4.00
2017-11-24T08:32:43.471Z,4.70
2017-11-24T08:34:44.452Z,4.13
2017-11-24T08:36:45.506Z,3.90
2017-11-24T08:38:47.256Z,4.10
2017-11-24T08:40:48.256Z,4.50
2017-11-24T08:42:49.224Z,4.07
2017-11-24T08:44:50.196Z,4.07
2017-11-24T08:46:57.368Z,4.40
2017-11-24T08:49:04.345Z,3.97
2017-11-24T08:51:05.341Z,4.83
2017-11-24T08:53:10.004Z,4.70
2017-11-24T08:55:10.988Z,5.10
2017-11-24T08:57:12.000Z,4.30
2017-11-24T08:59:13.031Z,6.33
2017-11-24T09:01:14.760Z,4.70
2017-11-24T09:03:15.720Z,4.37
2017-11-24T09:05:16.680Z,4.80
2017-11-24T09:07:17.708Z,4.00
2017-11-24T09:09:18.748Z,4.70
2017-11-24T09:11:19.731Z,4.83
2017-11-24T09:13:20.742Z,4.50
2017-11-24T09:15:21.730Z,4.70
2017-11-24T09:17:22.770Z,6.03
2017-11-24T09:19:23.776Z,5.57
2017-11-24T09:21:24.755Z,4.93
2017-11-24T09:23:25.736Z,4.67
2017-11-24T09:25:26.710Z,4.63
2017-11-24T09:27:27.700Z,4.50
2017-11-24T09:29:28.716Z,4.60
2017-11-24T09:31:30.484Z,4.67
2017-11-24T09:33:31.529Z,4.70
2017-11-24T09:35:32.565Z,3.20
2017-11-24T09:37:33.585Z,3.83
2017-11-24T09:39:34.590Z,4.30
2017-11-24T09:41:35.610Z,4.07
2017-11-24T09:43:36.582Z,3.80
2017-11-24T09:45:38.683Z,4.17
2017-11-24T09:47:39.655Z,3.57
2017-11-24T09:49:41.488Z,3.50
2017-11-24T09:51:42.490Z,3.60
2017-11-24T09:53:43.444Z,3.20
2017-11-24T09:55:44.540Z,3.60
2017-11-24T09:57:45.498Z,3.63
2017-11-24T09:59:46.504Z,3.50
2017-11-24T10:01:47.488Z,3.80
2017-11-24T10:03:48.476Z,3.80
2017-11-24T10:05:49.458Z,3.90
2017-11-24T10:07:50.456Z,2.73
2017-11-24T10:09:51.439Z,3.00
2017-11-24T10:11:53.172Z,3.30
2017-11-24T10:13:54.177Z,3.80
2017-11-24T10:15:55.151Z,3.70
2017-11-24T10:17:56.463Z,3.90
2017-11-24T10:19:57.435Z,3.00
2017-11-24T10:22:04.432Z,2.63
2017-11-24T10:24:05.392Z,2.57
2017-11-24T10:26:06.350Z,2.80
2017-11-24T10:28:07.316Z,3.27
2017-11-24T10:30:08.249Z,2.63
2017-11-24T10:32:09.188Z,3.00
2017-11-24T10:34:10.184Z,3.03
2017-11-24T10:36:11.122Z,3.57
2017-11-24T10:38:12.067Z,3.00
2017-11-24T10:40:13.053Z,3.07
2017-11-24T10:42:14.005Z,2.60
2017-11-24T10:44:14.979Z,3.77
2017-11-24T10:46:15.920Z,2.90
2017-11-24T10:48:16.920Z,2.40
2017-11-24T10:50:18.384Z,2.43
2017-11-24T10:52:19.411Z,2.60
2017-11-24T10:54:20.388Z,2.63
2017-11-24T10:56:21.332Z,2.50
2017-11-24T10:58:22.287Z,2.73
2017-11-24T11:00:24.126Z,3.20
2017-11-24T11:02:25.360Z,3.30
2017-11-24T11:04:26.348Z,3.37
2017-11-24T11:06:27.363Z,4.20
2017-11-24T11:08:28.339Z,4.80
2017-11-24T11:10:29.296Z,4.40
2017-11-24T11:12:30.268Z,5.50
2017-11-24T11:14:31.232Z,5.50
2017-11-24T11:16:32.924Z,6.07
2017-11-24T11:18:33.846Z,5.77
2017-11-24T11:20:34.903Z,5.30
2017-11-24T11:22:35.984Z,4.00
2017-11-24T11:24:36.989Z,4.10
2017-11-24T11:26:37.949Z,3.23
2017-11-24T11:28:38.883Z,3.60
2017-11-24T11:30:39.852Z,3.00
2017-11-24T11:32:40.820Z,2.57
2017-11-24T11:34:41.766Z,2.77
2017-11-24T11:36:42.698Z,3.80
2017-11-24T11:38:43.652Z,2.50
2017-11-24T11:40:44.598Z,1.90
2017-11-24T11:42:45.567Z,3.07
2017-11-24T11:44:46.541Z,2.63
2017-11-24T11:46:47.509Z,2.78
2017-11-24T11:48:48.464Z,2.90
2017-11-24T11:50:49.449Z,2.60
2017-11-24T11:52:50.439Z,2.50
2017-11-24T11:54:51.401Z,2.70
2017-11-24T11:56:52.384Z,3.30
2017-11-24T11:58:53.335Z,2.40
2017-11-24T12:00:54.347Z,2.70
2017-11-24T12:02:55.308Z,3.47
2017-11-24T12:04:56.259Z,2.37
2017-11-24T12:06:57.216Z,2.47
2017-11-24T12:08:58.181Z,2.80
2017-11-24T12:10:59.873Z,2.60
2017-11-24T12:13:00.836Z,2.67
2017-11-24T12:15:01.774Z,2.90
2017-11-24T12:17:02.725Z,3.23
2017-11-24T12:19:03.681Z,3.70
2017-11-24T12:21:04.633Z,3.17
2017-11-24T12:23:05.591Z,3.30
2017-11-24T12:25:06.537Z,3.47
2017-11-24T12:27:07.496Z,3.77
2017-11-24T12:29:09.179Z,3.10
2017-11-24T12:31:10.860Z,3.20
2017-11-24T12:33:11.789Z,2.90
2017-11-24T12:35:13.464Z,3.20
2017-11-24T12:37:14.408Z,3.40
2017-11-24T12:39:15.334Z,3.40
2017-11-24T12:41:17.027Z,4.07
2017-11-24T12:43:18.003Z,4.40
2017-11-24T12:45:18.950Z,3.83
2017-11-24T12:47:19.924Z,3.50
2017-11-24T12:49:21.617Z,3.60
2017-11-24T12:51:22.573Z,4.00
2017-11-24T12:53:23.549Z,4.13
2017-11-24T12:55:24.543Z,4.00
2017-11-24T12:57:25.527Z,4.03
2017-11-24T12:59:26.667Z,4.30
2017-11-24T13:01:27.608Z,3.77
2017-11-24T13:03:28.612Z,4.03
2017-11-24T13:05:31.375Z,3.97
2017-11-24T13:07:33.170Z,4.00
2017-11-24T13:09:34.246Z,3.40
2017-11-24T13:11:35.248Z,3.80
2017-11-24T13:13:36.249Z,3.77
2017-11-24T13:15:37.252Z,3.67
2017-11-24T13:17:38.965Z,3.80
2017-11-24T13:19:39.912Z,3.97
2017-11-24T13:21:40.852Z,3.87
2017-11-24T13:23:41.819Z,4.20
2017-11-24T13:25:42.785Z,3.43
2017-11-24T13:27:43.768Z,3.63
2017-11-24T13:29:46.241Z,3.63
2017-11-24T13:31:47.944Z,3.93
2017-11-24T13:33:48.904Z,4.50
2017-11-24T13:35:49.876Z,3.37
2017-11-24T13:37:50.845Z,3.87
2017-11-24T13:39:51.788Z,3.97
2017-11-24T13:41:53.467Z,3.80
2017-11-24T13:43:54.449Z,4.27
2017-11-24T13:45:55.376Z,3.70
2017-11-24T13:47:56.357Z,3.60
2017-11-24T13:49:57.292Z,3.97
2017-11-24T13:51:58.243Z,4.33
2017-11-24T13:53:59.257Z,4.67
2017-11-24T13:56:00.283Z,4.30
2017-11-24T13:58:01.976Z,4.23
2017-11-24T14:00:02.973Z,4.40
2017-11-24T14:02:03.977Z,5.00
2017-11-24T14:04:04.968Z,4.53
2017-11-24T14:06:05.908Z,3.70
2017-11-24T14:08:06.874Z,5.40
2017-11-24T14:10:08.566Z,4.60
2017-11-24T14:12:09.524Z,4.20
2017-11-24T14:14:10.468Z,5.00
2017-11-24T14:16:11.403Z,4.70
2017-11-24T14:18:12.342Z,4.20
2017-11-24T14:20:13.297Z,3.97
2017-11-24T14:22:14.248Z,5.07
2017-11-24T14:24:15.188Z,4.87
2017-11-24T14:26:16.173Z,4.87
2017-11-24T14:28:17.169Z,5.07
2017-11-24T14:30:18.153Z,4.73
2017-11-24T14:32:19.104Z,5.53
2017-11-24T14:34:20.061Z,5.20
2017-11-24T14:36:21.044Z,5.70
2017-11-24T14:38:21.976Z,5.20
2017-11-24T14:40:23.688Z,5.30
2017-11-24T14:42:24.673Z,5.47
2017-11-24T14:44:25.617Z,5.90
2017-11-24T14:46:26.576Z,5.80
2017-11-24T14:48:28.267Z,5.53
2017-11-24T14:50:29.233Z,6.20
2017-11-24T14:52:30.170Z,6.30
2017-11-24T14:54:31.110Z,7.07
2017-11-24T14:56:32.052Z,6.17
2017-11-24T14:58:32.993Z,6.70
2017-11-24T15:00:33.995Z,6.20
2017-11-24T15:02:34.957Z,6.77
2017-11-24T15:04:36.643Z,7.53
2017-11-24T15:06:37.618Z,7.47
2017-11-24T15:08:38.569Z,7.70
2017-11-24T15:10:39.551Z,8.13
2017-11-24T15:12:40.488Z,8.40
2017-11-24T15:14:41.423Z,9.63
2017-11-24T15:16:42.367Z,8.10
2017-11-24T15:18:43.309Z,9.93
2017-11-24T15:20:44.244Z,9.43
2017-11-24T15:22:45.200Z,9.00
2017-11-24T15:24:46.147Z,8.60
2017-11-24T15:26:47.108Z,10.10
2017-11-24T15:28:48.084Z,8.67
2017-11-24T15:30:49.052Z,8.67
2017-11-24T15:32:50.021Z,8.73
2017-11-24T15:34:50.976Z,7.90
2017-11-24T15:36:51.960Z,7.27
2017-11-24T15:38:53.675Z,7.63
2017-11-24T15:40:54.641Z,7.90
2017-11-24T15:42:55.600Z,7.90
2017-11-24T15:44:56.548Z,7.90
2017-11-24T15:46:58.236Z,7.87
2017-11-24T15:48:59.176Z,7.37
2017-11-24T15:51:00.092Z,8.30
2017-11-24T15:53:01.031Z,8.77
2017-11-24T15:55:01.973Z,7.77
2017-11-24T15:57:02.920Z,8.10
2017-11-24T15:59:03.861Z,8.63
2017-11-24T16:01:04.825Z,7.93
2017-11-24T16:03:05.784Z,9.03
2017-11-24T16:05:07.462Z,7.90
2017-11-24T16:07:08.474Z,8.07
2017-11-24T16:09:09.500Z,8.80
2017-11-24T16:11:10.448Z,8.57
2017-11-24T16:13:11.380Z,9.77
2017-11-24T16:15:12.320Z,8.40
2017-11-24T16:17:14.019Z,8.90
2017-11-24T16:19:14.963Z,8.77
2017-11-24T16:21:15.909Z,8.27
2017-11-24T16:23:16.904Z,11.07
2017-11-24T16:25:17.858Z,11.60
2017-11-24T16:27:18.775Z,9.80
2017-11-24T16:29:20.465Z,9.60
2017-11-24T16:31:21.408Z,10.10
2017-11-24T16:33:22.377Z,10.70
2017-11-24T16:35:23.319Z,9.23
2017-11-24T16:37:24.275Z,10.20
2017-11-24T16:39:25.204Z,10.47
2017-11-24T16:41:26.139Z,10.00
2017-11-24T16:43:27.088Z,9.30
2017-11-24T16:45:28.076Z,8.10
2017-11-24T16:47:29.709Z,8.43
2017-11-24T16:49:30.669Z,8.57
2017-11-24T16:51:31.680Z,9.03
2017-11-24T16:53:32.638Z,9.47
2017-11-24T16:55:33.843Z,8.63
2017-11-24T16:57:35.608Z,9.97
2017-11-24T16:59:37.304Z,10.17
2017-11-24T17:01:38.253Z,10.40
2017-11-24T17:03:39.188Z,11.60
2017-11-24T17:05:40.157Z,10.87
2017-11-24T17:07:41.116Z,11.63
2017-11-24T17:09:42.112Z,13.17
2017-11-24T17:11:43.796Z,13.20
2017-11-24T17:13:44.757Z,13.60
2017-11-24T17:15:45.723Z,12.90
2017-11-24T17:17:46.686Z,12.47
2017-11-24T17:19:47.698Z,12.10
2017-11-24T17:21:49.440Z,13.33
2017-11-24T17:23:50.406Z,12.80
2017-11-24T17:25:51.355Z,13.53
2017-11-24T17:27:52.316Z,12.87
2017-11-24T17:29:53.266Z,13.30
2017-11-24T17:31:54.220Z,13.43
2017-11-24T17:33:55.151Z,12.70
2017-11-24T17:35:56.091Z,14.13
2017-11-24T17:37:57.109Z,12.47
2017-11-24T17:39:58.068Z,13.83
2017-11-24T17:41:59.068Z,12.63
2017-11-24T17:43:59.996Z,13.90
2017-11-24T17:46:00.981Z,14.00
2017-11-24T17:48:01.926Z,16.60
2017-11-24T17:50:02.872Z,14.03
2017-11-24T17:52:03.844Z,16.10
2017-11-24T17:54:04.774Z,15.77
2017-11-24T17:56:05.740Z,16.10
2017-11-24T17:58:06.687Z,16.87
2017-11-24T18:00:07.655Z,14.77
2017-11-24T18:02:08.609Z,14.73
2017-11-24T18:04:09.542Z,13.97
2017-11-24T18:06:10.516Z,15.53
2017-11-24T18:08:12.223Z,17.13
2017-11-24T18:10:13.172Z,16.80
2017-11-24T18:12:14.116Z,15.73
2017-11-24T18:14:15.055Z,16.20
2017-11-24T18:16:15.988Z,16.93
2017-11-24T18:18:16.935Z,17.00
2017-11-24T18:20:17.885Z,18.23
2017-11-24T18:22:18.835Z,17.40
2017-11-24T18:24:19.773Z,19.63
2017-11-24T18:26:20.720Z,19.83
2017-11-24T18:28:21.701Z,18.70
2017-11-24T18:30:22.649Z,12.83
2017-11-24T18:32:23.615Z,13.23
2017-11-24T18:34:24.575Z,14.67
2017-11-24T18:36:26.242Z,14.80
2017-11-24T18:38:27.921Z,16.40
2017-11-24T18:40:28.954Z,14.00
2017-11-24T18:42:30.668Z,13.20
2017-11-24T18:44:31.660Z,11.30
2017-11-24T18:46:33.350Z,10.90
2017-11-24T18:48:34.304Z,12.70
2017-11-24T18:50:35.256Z,14.30
2017-11-24T18:52:36.251Z,14.30
2017-11-24T18:54:37.218Z,13.93
2017-11-24T18:56:38.156Z,14.63
2017-11-24T18:58:39.836Z,16.00
2017-11-24T19:00:40.786Z,16.30
2017-11-24T19:02:41.744Z,15.90
2017-11-24T19:04:43.451Z,17.33
2017-11-24T19:06:44.390Z,18.03
2017-11-24T19:08:45.352Z,20.73
2017-11-24T19:10:47.044Z,20.20
2017-11-24T19:12:48.064Z,22.33
2017-11-24T19:14:49.735Z,19.63
2017-11-24T19:16:51.441Z,17.10
2017-11-24T19:18:52.384Z,16.53
2017-11-24T19:20:53.331Z,18.90
2017-11-24T19:22:54.263Z,20.60
2017-11-24T19:24:55.208Z,20.53
2017-11-24T19:26:56.164Z,21.53
2017-11-24T19:28:57.149Z,24.30
2017-11-24T19:30:58.120Z,24.00
2017-11-24T19:32:59.827Z,23.30
2017-11-24T19:35:00.776Z,22.10
2017-11-24T19:37:01.732Z,24.87
2017-11-24T19:39:02.680Z,22.97
2017-11-24T19:41:03.604Z,20.77
2017-11-24T19:43:04.549Z,19.83
2017-11-24T19:45:05.485Z,20.37
2017-11-24T19:47:06.413Z,21.80
2017-11-24T19:49:07.379Z,20.37
2017-11-24T19:51:08.316Z,19.47
2017-11-24T19:53:09.343Z,20.60
2017-11-24T19:55:11.052Z,22.10
2017-11-24T19:57:12.016Z,20.57
2017-11-24T19:59:15.016Z,22.60
2017-11-24T20:01:16.008Z,21.37
2017-11-24T20:03:17.647Z,21.80
2017-11-24T20:05:19.386Z,21.17
2017-11-24T20:07:20.336Z,23.53
2017-11-24T20:09:22.035Z,23.60
2017-11-24T20:11:22.973Z,20.40
2017-11-24T20:13:23.939Z,16.63
2017-11-24T20:15:24.937Z,18.33
2017-11-24T20:17:25.899Z,17.90
2017-11-24T20:19:27.600Z,22.27
2017-11-24T20:21:28.523Z,21.80
2017-11-24T20:23:29.476Z,23.97
2017-11-24T20:25:30.479Z,25.37
2017-11-24T20:27:31.447Z,18.93
2017-11-24T20:29:33.118Z,16.40
2017-11-24T20:31:34.832Z,17.37
2017-11-24T20:33:35.789Z,16.80
2017-11-24T20:35:36.736Z,20.20
2017-11-24T20:37:37.668Z,18.53
2017-11-24T20:39:42.385Z,19.30
2017-11-24T20:41:44.115Z,18.53
2017-11-24T20:43:48.321Z,18.70
2017-11-24T20:45:49.261Z,21.80
2017-11-24T20:47:50.204Z,24.00
2017-11-24T20:49:51.160Z,27.10
2017-11-24T20:51:52.839Z,25.60
2017-11-24T20:53:53.796Z,26.60
2017-11-24T20:55:54.736Z,27.33
2017-11-24T20:57:56.757Z,24.57
2017-11-24T20:59:57.904Z,19.90
2017-11-24T21:01:58.854Z,16.27
2017-11-24T21:03:59.797Z,14.07
2017-11-24T21:06:00.768Z,13.80
2017-11-24T21:08:01.725Z,13.40
2017-11-24T21:10:03.461Z,15.30
2017-11-24T21:12:04.433Z,15.80
2017-11-24T21:14:06.121Z,16.10
2017-11-24T21:16:07.139Z,17.00
2017-11-24T21:18:08.894Z,18.27
2017-11-24T21:20:09.965Z,20.90
2017-11-24T21:22:10.923Z,19.57
2017-11-24T21:24:11.868Z,18.43
2017-11-24T21:26:12.808Z,20.50
2017-11-24T21:28:13.780Z,18.80
2017-11-24T21:30:15.511Z,17.00
2017-11-24T21:32:16.482Z,14.97
2017-11-24T21:34:17.469Z,18.40
2017-11-24T21:36:18.473Z,17.27
2017-11-24T21:38:19.424Z,18.70
2017-11-24T21:40:20.391Z,17.50
2017-11-24T21:42:21.382Z,20.00
2017-11-24T21:44:23.065Z,17.63
2017-11-24T21:46:24.065Z,13.53
2017-11-24T21:48:25.165Z,8.67
2017-11-24T21:50:26.172Z,12.63
2017-11-24T21:52:28.281Z,13.30
2017-11-24T21:54:29.265Z,12.57
2017-11-24T21:56:30.261Z,14.80
2017-11-24T21:58:31.265Z,13.60
2017-11-24T22:00:32.309Z,14.47
2017-11-24T22:02:33.320Z,14.20
2017-11-24T22:04:34.273Z,14.93
2017-11-24T22:06:35.320Z,12.70
2017-11-24T22:08:36.295Z,11.73
2017-11-24T22:10:37.228Z,13.63
2017-11-24T22:12:38.236Z,12.00
2017-11-24T22:14:39.527Z,15.37
2017-11-24T22:16:40.529Z,16.23
2017-11-24T22:18:42.204Z,15.80
2017-11-24T22:20:43.228Z,20.50
2017-11-24T22:22:44.948Z,18.47
2017-11-24T22:24:45.889Z,18.63
2017-11-24T22:26:46.928Z,18.03
2017-11-24T22:28:48.229Z,16.53
2017-11-24T22:30:49.263Z,18.73
2017-11-24T22:37:47.636Z,12.63
2017-11-24T22:39:50.168Z,14.47
2017-11-24T22:41:51.202Z,19.57
2017-11-24T22:43:52.211Z,19.07
2017-11-24T22:45:54.804Z,21.03
2017-11-24T22:47:56.530Z,20.70
2017-11-24T22:49:57.516Z,22.03
2017-11-24T22:51:58.476Z,20.07
2017-11-24T22:53:59.656Z,21.20
2017-11-24T22:56:00.644Z,22.10
2017-11-24T22:58:02.352Z,21.00
2017-11-24T23:00:03.397Z,22.13
2017-11-24T23:02:07.965Z,24.20
2017-11-24T23:04:08.973Z,22.80
2017-11-24T23:06:09.977Z,24.50
2017-11-24T23:08:11.705Z,22.20
2017-11-24T23:10:12.667Z,22.73
2017-11-24T23:12:13.702Z,22.90
2017-11-24T23:14:14.725Z,22.70
2017-11-24T23:16:15.701Z,22.23
2017-11-24T23:18:16.707Z,24.47
2017-11-24T23:20:17.721Z,22.53
2017-11-24T23:22:19.516Z,23.57
2017-11-24T23:24:20.523Z,20.83
2017-11-24T23:26:22.277Z,20.10
2017-11-24T23:28:23.256Z,20.00
2017-11-24T23:30:24.957Z,20.00
2017-11-24T23:32:26.661Z,21.40
2017-11-24T23:34:27.645Z,21.03
2017-11-24T23:36:28.649Z,21.23
2017-11-24T23:38:29.583Z,22.90
2017-11-24T23:40:30.591Z,23.63
2017-11-24T23:42:31.542Z,25.40
2017-11-24T23:44:32.486Z,23.77
2017-11-24T23:46:33.503Z,24.50
2017-11-24T23:48:34.470Z,24.00
2017-11-24T23:50:35.431Z,22.93
2017-11-24T23:52:36.421Z,23.27
2017-11-24T23:54:37.418Z,22.67
2017-11-24T23:56:38.443Z,24.20
2017-11-24T23:58:39.464Z,24.70
